createdAt,value
2023-10-07T00:02:18.864Z,16.47
2023-10-07T00:04:46.891Z,16.49
2023-10-07T00:07:16.334Z,16.42
2023-10-07T00:09:51.631Z,16.30
2023-10-07T00:12:20.572Z,16.24
2023-10-07T00:14:48.499Z,16.18
2023-10-07T00:17:19.644Z,16.14
2023-10-07T00:19:49.193Z,16.12
2023-10-07T00:22:20.897Z,16.08
2023-10-07T00:24:50.199Z,16.10
2023-10-07T00:27:39.228Z,16.12
2023-10-07T00:30:14.674Z,16.11
2023-10-07T00:32:43.161Z,16.14
2023-10-07T00:35:12.833Z,16.24
2023-10-07T00:37:45.282Z,16.22
2023-10-07T00:40:16.123Z,16.17
2023-10-07T00:42:46.471Z,16.14
2023-10-07T00:45:17.852Z,16.21
2023-10-07T00:47:51.164Z,16.11
2023-10-07T00:50:19.320Z,16.06
2023-10-07T00:52:56.019Z,15.97
2023-10-07T00:55:38.663Z,15.98
2023-10-07T00:58:09.273Z,15.99
2023-10-07T01:00:40.237Z,15.99
2023-10-07T01:03:18.477Z,15.99
2023-10-07T01:06:02.356Z,15.95
2023-10-07T01:08:48.411Z,15.99
2023-10-07T01:11:19.590Z,15.95
2023-10-07T01:13:58.146Z,15.99
2023-10-07T01:16:47.980Z,16.03
2023-10-07T01:19:19.667Z,15.91
2023-10-07T01:22:12.967Z,15.84
2023-10-07T01:24:40.792Z,15.81
2023-10-07T01:27:31.105Z,15.82
2023-10-07T01:30:03.856Z,15.78
2023-10-07T01:32:35.518Z,15.75
2023-10-07T01:35:12.388Z,15.78
2023-10-07T01:37:50.030Z,15.80
2023-10-07T01:40:18.646Z,15.76
2023-10-07T01:42:46.672Z,15.70
2023-10-07T01:45:23.821Z,15.78
2023-10-07T01:47:56.942Z,15.80
2023-10-07T01:50:26.046Z,15.81
2023-10-07T01:52:57.493Z,15.75
2023-10-07T01:55:29.540Z,15.73
2023-10-07T01:57:57.875Z,15.75
2023-10-07T02:00:44.369Z,15.86
2023-10-07T02:03:25.195Z,16.03
2023-10-07T02:05:54.170Z,15.90
2023-10-07T02:08:24.737Z,15.77
2023-10-07T02:11:02.189Z,15.67
2023-10-07T02:13:32.988Z,15.61
2023-10-07T02:16:06.834Z,15.59
2023-10-07T02:18:36.942Z,15.67
2023-10-07T02:21:15.073Z,15.85
2023-10-07T02:23:44.957Z,15.89
2023-10-07T02:26:21.275Z,15.95
2023-10-07T02:28:54.775Z,15.83
2023-10-07T02:31:24.994Z,15.75
2023-10-07T02:33:53.810Z,15.74
2023-10-07T02:36:29.710Z,15.69
2023-10-07T02:39:20.358Z,15.64
2023-10-07T02:41:49.288Z,15.57
2023-10-07T02:44:29.638Z,15.49
2023-10-07T02:46:58.197Z,15.48
2023-10-07T02:49:27.488Z,15.45
2023-10-07T02:51:58.541Z,15.40
2023-10-07T02:54:34.532Z,15.37
2023-10-07T02:57:21.331Z,15.36
2023-10-07T02:59:52.504Z,15.40
2023-10-07T03:02:38.372Z,15.40
2023-10-07T03:05:12.972Z,15.40
2023-10-07T03:07:50.869Z,15.35
2023-10-07T03:10:19.966Z,15.30
2023-10-07T03:12:49.990Z,15.29
2023-10-07T03:15:28.137Z,15.23
2023-10-07T03:17:56.926Z,15.18
2023-10-07T03:20:29.694Z,15.11
2023-10-07T03:23:19.200Z,15.13
2023-10-07T03:26:10.091Z,15.16
2023-10-07T03:28:38.692Z,15.22
2023-10-07T03:31:12.451Z,15.18
2023-10-07T03:33:45.433Z,15.11
2023-10-07T03:36:32.329Z,15.05
2023-10-07T03:39:18.890Z,15.01
2023-10-07T03:41:49.582Z,14.93
2023-10-07T03:44:19.345Z,14.99
2023-10-07T03:46:49.819Z,15.08
2023-10-07T03:49:22.444Z,15.21
2023-10-07T03:52:04.737Z,15.09
2023-10-07T03:54:33.042Z,15.04
2023-10-07T03:57:04.270Z,15.07
2023-10-07T03:59:33.539Z,15.09
2023-10-07T04:02:24.471Z,15.05
2023-10-07T04:05:02.293Z,15.01
2023-10-07T04:07:32.759Z,15.00
2023-10-07T04:10:14.262Z,15.02
2023-10-07T04:12:42.172Z,15.07
2023-10-07T04:15:14.542Z,14.93
2023-10-07T04:17:44.742Z,15.13
2023-10-07T04:20:19.955Z,15.11
2023-10-07T04:23:02.352Z,14.98
2023-10-07T04:25:41.212Z,14.94
2023-10-07T04:28:09.345Z,14.81
2023-10-07T04:30:48.952Z,14.76
2023-10-07T04:33:27.095Z,14.75
2023-10-07T04:36:01.704Z,14.76
2023-10-07T04:38:40.612Z,14.73
2023-10-07T04:41:37.944Z,14.74
2023-10-07T04:44:44.228Z,14.87
2023-10-07T04:47:36.326Z,14.88
2023-10-07T04:50:17.055Z,15.00
2023-10-07T04:52:52.104Z,15.02
2023-10-07T04:55:27.727Z,14.93
2023-10-07T04:57:55.740Z,14.92
2023-10-07T05:00:33.338Z,14.84
2023-10-07T05:03:04.347Z,14.83
2023-10-07T05:05:34.795Z,14.88
2023-10-07T05:08:19.422Z,15.05
2023-10-07T05:10:54.726Z,14.98
2023-10-07T05:13:22.976Z,14.84
2023-10-07T05:15:51.142Z,14.81
2023-10-07T05:18:19.109Z,14.79
2023-10-07T05:20:50.071Z,14.84
2023-10-07T05:23:18.994Z,14.80
2023-10-07T05:25:50.707Z,14.77
2023-10-07T05:28:23.074Z,14.75
2023-10-07T05:30:52.794Z,14.73
2023-10-07T05:33:26.175Z,14.68
2023-10-07T05:36:15.255Z,14.71
2023-10-07T05:38:54.498Z,14.77
2023-10-07T05:41:26.560Z,14.91
2023-10-07T05:43:54.567Z,14.96
2023-10-07T05:46:22.555Z,14.89
2023-10-07T05:48:52.661Z,14.80
2023-10-07T05:51:20.549Z,14.81
2023-10-07T05:53:53.002Z,14.81
2023-10-07T05:56:21.230Z,15.02
2023-10-07T05:58:49.938Z,15.02
2023-10-07T06:01:20.145Z,15.39
2023-10-07T06:03:56.810Z,15.87
2023-10-07T06:06:25.786Z,16.34
2023-10-07T06:09:04.901Z,16.63
2023-10-07T06:11:34.106Z,16.90
2023-10-07T06:14:06.021Z,17.16
2023-10-07T06:16:34.944Z,17.25
2023-10-07T06:19:04.268Z,17.36
2023-10-07T06:21:33.466Z,17.44
2023-10-07T06:24:08.871Z,17.41
2023-10-07T06:26:38.273Z,17.49
2023-10-07T06:29:20.368Z,17.62
2023-10-07T06:32:19.350Z,17.80
2023-10-07T06:34:47.950Z,17.90
2023-10-07T06:37:16.484Z,18.00
2023-10-07T06:39:44.865Z,18.10
2023-10-07T06:42:13.193Z,18.20
2023-10-07T06:44:44.794Z,18.27
2023-10-07T06:47:13.916Z,18.37
2023-10-07T06:49:42.231Z,18.38
2023-10-07T06:52:14.129Z,18.33
2023-10-07T06:54:51.968Z,18.26
2023-10-07T06:57:30.960Z,18.47
2023-10-07T06:59:59.563Z,18.50
2023-10-07T07:02:36.377Z,18.47
2023-10-07T07:05:13.140Z,18.52
2023-10-07T07:07:43.316Z,18.53
2023-10-07T07:10:18.035Z,18.53
2023-10-07T07:12:46.633Z,18.45
2023-10-07T07:15:28.177Z,18.48
2023-10-07T07:18:15.394Z,18.57
2023-10-07T07:21:11.352Z,18.67
2023-10-07T07:23:44.751Z,18.81
2023-10-07T07:26:14.266Z,18.85
2023-10-07T07:28:45.550Z,18.86
2023-10-07T07:31:21.281Z,18.99
2023-10-07T07:33:49.958Z,19.07
2023-10-07T07:36:43.422Z,19.14
2023-10-07T07:39:19.269Z,19.09
2023-10-07T07:41:57.527Z,18.99
2023-10-07T07:44:35.341Z,19.19
2023-10-07T07:47:05.000Z,19.41
2023-10-07T07:49:34.750Z,19.66
2023-10-07T07:52:04.357Z,19.83
2023-10-07T07:54:33.111Z,19.83
2023-10-07T07:57:06.102Z,20.12
2023-10-07T07:59:34.844Z,20.12
2023-10-07T08:02:14.400Z,20.17
2023-10-07T08:04:47.622Z,20.14
2023-10-07T08:07:26.135Z,20.13
2023-10-07T08:09:59.408Z,20.06
2023-10-07T08:12:32.893Z,19.82
2023-10-07T08:15:16.413Z,19.93
2023-10-07T08:17:48.202Z,20.21
2023-10-07T08:20:23.796Z,20.22
2023-10-07T08:22:53.643Z,20.23
2023-10-07T08:26:01.601Z,20.31
2023-10-07T08:28:48.758Z,20.41
2023-10-07T08:31:20.164Z,20.47
2023-10-07T08:33:55.643Z,20.34
2023-10-07T08:36:30.826Z,20.36
2023-10-07T08:39:06.377Z,20.48
2023-10-07T08:41:35.063Z,20.52
2023-10-07T08:44:17.132Z,20.61
2023-10-07T08:46:54.250Z,20.67
2023-10-07T08:49:27.262Z,20.66
2023-10-07T08:51:57.052Z,20.80
2023-10-07T08:54:33.518Z,20.84
2023-10-07T08:57:10.603Z,20.91
2023-10-07T08:59:39.502Z,20.96
2023-10-07T09:02:18.661Z,21.03
2023-10-07T09:04:47.393Z,21.03
2023-10-07T09:07:19.692Z,21.13
2023-10-07T09:09:50.380Z,21.18
2023-10-07T09:12:41.027Z,21.19
2023-10-07T09:15:16.116Z,21.28
2023-10-07T09:17:47.116Z,21.43
2023-10-07T09:20:19.479Z,21.38
2023-10-07T09:22:55.274Z,21.37
2023-10-07T09:25:32.830Z,21.46
2023-10-07T09:28:03.406Z,21.55
2023-10-07T09:30:46.820Z,21.64
2023-10-07T09:33:20.806Z,21.58
2023-10-07T09:36:22.480Z,21.74
2023-10-07T09:39:06.959Z,21.81
2023-10-07T09:41:35.947Z,21.89
2023-10-07T09:44:11.362Z,21.93
2023-10-07T09:46:43.074Z,21.98
2023-10-07T09:49:16.146Z,22.08
2023-10-07T09:51:52.429Z,22.11
2023-10-07T09:55:20.382Z,22.25
2023-10-07T09:58:05.612Z,22.37
2023-10-07T10:01:08.294Z,22.52
2023-10-07T10:04:07.550Z,22.68
2023-10-07T10:07:11.966Z,22.84
2023-10-07T10:09:59.310Z,22.81
2023-10-07T10:12:50.416Z,22.88
2023-10-07T10:15:21.927Z,23.01
2023-10-07T10:17:57.245Z,23.04
2023-10-07T10:20:44.500Z,23.12
2023-10-07T10:23:21.418Z,23.27
2023-10-07T10:25:54.747Z,23.26
2023-10-07T10:28:29.468Z,23.41
2023-10-07T10:30:58.059Z,23.47
2023-10-07T10:33:30.107Z,23.54
2023-10-07T10:36:03.008Z,23.61
2023-10-07T10:38:42.460Z,23.70
2023-10-07T10:41:12.396Z,23.84
2023-10-07T10:43:41.305Z,23.91
2023-10-07T10:46:09.907Z,23.97
2023-10-07T10:48:40.545Z,24.03
2023-10-07T10:51:09.748Z,24.21
2023-10-07T10:53:42.721Z,24.21
2023-10-07T10:56:12.476Z,24.21
2023-10-07T10:58:41.121Z,24.27
2023-10-07T11:01:09.643Z,24.27
2023-10-07T11:03:38.934Z,24.36
2023-10-07T11:06:08.018Z,24.50
2023-10-07T11:08:39.082Z,24.58
2023-10-07T11:11:15.905Z,24.69
2023-10-07T11:13:46.052Z,24.78
2023-10-07T11:16:18.201Z,24.81
2023-10-07T11:18:48.913Z,24.90
2023-10-07T11:21:23.074Z,24.85
2023-10-07T11:23:59.740Z,24.86
2023-10-07T11:26:34.238Z,24.83
2023-10-07T11:29:16.279Z,24.93
2023-10-07T11:31:48.257Z,24.95
2023-10-07T11:34:21.387Z,25.00
2023-10-07T11:36:52.325Z,25.17
2023-10-07T11:39:29.972Z,25.26
2023-10-07T11:42:03.210Z,25.38
2023-10-07T11:44:33.392Z,25.48
2023-10-07T11:47:08.637Z,25.42
2023-10-07T11:49:59.264Z,25.54
2023-10-07T11:52:31.086Z,25.67
2023-10-07T11:55:03.116Z,25.74
2023-10-07T11:57:39.372Z,25.76
2023-10-07T12:00:24.768Z,25.76
2023-10-07T12:02:54.482Z,25.70
2023-10-07T12:05:22.770Z,25.73
2023-10-07T12:07:51.192Z,25.70
2023-10-07T12:10:23.588Z,25.92
2023-10-07T12:12:56.516Z,25.93
2023-10-07T12:15:26.808Z,26.07
2023-10-07T12:17:55.639Z,26.05
2023-10-07T12:20:25.753Z,26.13
2023-10-07T12:22:55.009Z,26.00
2023-10-07T12:25:25.195Z,26.15
2023-10-07T12:27:54.680Z,26.11
2023-10-07T12:30:28.137Z,26.18
2023-10-07T12:33:03.818Z,26.22
2023-10-07T12:35:36.540Z,26.26
2023-10-07T12:38:05.441Z,26.33
2023-10-07T12:40:33.789Z,26.33
2023-10-07T12:43:03.084Z,26.32
2023-10-07T12:45:32.466Z,26.52
2023-10-07T12:48:05.236Z,26.52
2023-10-07T12:50:35.177Z,26.60
2023-10-07T12:53:06.129Z,26.61
2023-10-07T12:55:38.655Z,26.44
2023-10-07T12:58:17.363Z,26.56
2023-10-07T13:00:46.066Z,26.43
2023-10-07T13:03:14.806Z,26.47
2023-10-07T13:05:47.091Z,26.47
2023-10-07T13:08:19.246Z,26.34
2023-10-07T13:10:47.882Z,26.50
2023-10-07T13:13:16.782Z,26.45
2023-10-07T13:15:47.358Z,26.59
2023-10-07T13:18:16.710Z,26.67
2023-10-07T13:20:46.083Z,26.79
2023-10-07T13:23:17.848Z,26.64
2023-10-07T13:25:47.669Z,26.61
2023-10-07T13:28:19.024Z,26.61
2023-10-07T13:30:47.810Z,26.54
2023-10-07T13:33:17.337Z,26.43
2023-10-07T13:35:47.238Z,26.45
2023-10-07T13:38:17.271Z,26.45
2023-10-07T13:40:46.294Z,26.39
2023-10-07T13:43:24.818Z,26.38
2023-10-07T13:45:53.873Z,26.35
2023-10-07T13:48:26.205Z,26.47
2023-10-07T13:51:01.779Z,26.52
2023-10-07T13:53:51.464Z,26.56
2023-10-07T13:56:44.974Z,26.60
2023-10-07T13:59:13.915Z,26.65
2023-10-07T14:01:44.086Z,26.55
2023-10-07T14:04:17.020Z,26.54
2023-10-07T14:06:49.648Z,26.50
2023-10-07T14:09:24.165Z,26.45
2023-10-07T14:11:53.590Z,26.37
2023-10-07T14:14:22.661Z,26.38
2023-10-07T14:16:57.478Z,26.45
2023-10-07T14:19:29.798Z,26.41
2023-10-07T14:22:04.009Z,26.44
2023-10-07T14:24:40.917Z,26.39
2023-10-07T14:27:16.847Z,26.37
2023-10-07T14:29:49.895Z,26.24
2023-10-07T14:32:20.162Z,26.10
2023-10-07T14:34:49.595Z,26.00
2023-10-07T14:37:25.595Z,25.94
2023-10-07T14:39:58.478Z,25.95
2023-10-07T14:42:27.167Z,25.86
2023-10-07T14:44:57.188Z,25.73
2023-10-07T14:47:26.320Z,25.63
2023-10-07T14:49:56.397Z,25.62
2023-10-07T14:52:25.292Z,25.49
2023-10-07T14:54:56.204Z,25.53
2023-10-07T14:57:32.775Z,25.48
2023-10-07T15:00:12.291Z,25.38
2023-10-07T15:02:41.679Z,25.35
2023-10-07T15:05:11.728Z,25.30
2023-10-07T15:07:43.375Z,25.37
2023-10-07T15:10:15.126Z,25.29
2023-10-07T15:12:48.784Z,25.12
2023-10-07T15:15:17.260Z,25.07
2023-10-07T15:17:49.171Z,25.07
2023-10-07T15:20:17.819Z,25.00
2023-10-07T15:22:46.404Z,25.02
2023-10-07T15:25:14.668Z,24.95
2023-10-07T15:27:43.682Z,24.96
2023-10-07T15:30:13.523Z,24.95
2023-10-07T15:32:45.846Z,24.87
2023-10-07T15:35:14.388Z,24.77
2023-10-07T15:37:47.011Z,24.85
2023-10-07T15:40:16.363Z,24.78
2023-10-07T15:42:47.199Z,24.78
2023-10-07T15:45:15.728Z,24.67
2023-10-07T15:47:44.187Z,24.64
2023-10-07T15:50:12.658Z,24.65
2023-10-07T15:52:41.183Z,24.60
2023-10-07T15:55:11.513Z,24.56
2023-10-07T15:57:39.937Z,24.48
2023-10-07T16:00:13.076Z,24.41
2023-10-07T16:02:41.716Z,24.37
2023-10-07T16:05:12.227Z,24.32
2023-10-07T16:07:40.574Z,24.23
2023-10-07T16:10:14.256Z,24.21
2023-10-07T16:12:44.140Z,24.19
2023-10-07T16:15:16.073Z,24.12
2023-10-07T16:17:44.460Z,24.19
2023-10-07T16:20:13.133Z,24.15
2023-10-07T16:22:41.898Z,24.10
2023-10-07T16:25:11.405Z,23.94
2023-10-07T16:27:39.891Z,23.90
2023-10-07T16:30:08.890Z,23.89
2023-10-07T16:32:37.708Z,23.85
2023-10-07T16:35:07.481Z,23.78
2023-10-07T16:37:35.913Z,23.70
2023-10-07T16:40:05.526Z,23.70
2023-10-07T16:42:33.856Z,23.61
2023-10-07T16:47:36.024Z,23.52
2023-10-07T16:50:04.963Z,23.48
2023-10-07T16:52:33.474Z,23.42
2023-10-07T16:55:08.404Z,23.34
2023-10-07T16:57:37.445Z,23.31
2023-10-07T17:00:07.000Z,23.35
2023-10-07T17:02:36.176Z,23.28
2023-10-07T17:05:05.117Z,23.27
2023-10-07T17:07:33.581Z,23.21
2023-10-07T17:10:02.412Z,23.08
2023-10-07T17:12:30.850Z,23.06
2023-10-07T17:14:59.376Z,23.07
2023-10-07T17:17:27.984Z,23.06
2023-10-07T17:19:56.442Z,22.99
2023-10-07T17:22:24.987Z,23.02
2023-10-07T17:24:53.746Z,23.03
2023-10-07T17:27:22.661Z,23.01
2023-10-07T17:29:51.807Z,22.96
2023-10-07T17:32:21.008Z,22.99
2023-10-07T17:34:49.815Z,22.85
2023-10-07T17:37:18.185Z,22.79
2023-10-07T17:39:46.904Z,22.72
2023-10-07T17:42:15.570Z,22.79
2023-10-07T17:44:43.863Z,22.63
2023-10-07T17:47:13.621Z,22.59
2023-10-07T17:49:42.262Z,22.68
2023-10-07T17:52:10.758Z,22.65
2023-10-07T17:54:39.335Z,22.47
2023-10-07T17:57:08.276Z,22.45
2023-10-07T17:59:36.921Z,22.49
2023-10-07T18:02:05.398Z,22.57
2023-10-07T18:04:35.861Z,22.55
2023-10-07T18:07:05.057Z,22.39
2023-10-07T18:09:33.699Z,22.43
2023-10-07T18:12:02.083Z,22.32
2023-10-07T18:14:33.879Z,22.29
2023-10-07T18:17:02.475Z,22.11
2023-10-07T18:19:33.362Z,22.07
2023-10-07T18:22:02.094Z,22.13
2023-10-07T18:24:31.499Z,22.17
2023-10-07T18:27:03.417Z,21.99
2023-10-07T18:29:33.031Z,22.03
2023-10-07T18:32:01.716Z,21.88
2023-10-07T18:34:30.390Z,21.75
2023-10-07T18:36:59.092Z,21.84
2023-10-07T18:39:27.776Z,21.69
2023-10-07T18:41:56.250Z,21.80
2023-10-07T18:44:25.153Z,21.80
2023-10-07T18:46:53.724Z,21.80
2023-10-07T18:49:22.163Z,21.72
2023-10-07T18:51:51.328Z,21.58
2023-10-07T18:54:19.688Z,21.47
2023-10-07T18:56:48.417Z,21.45
2023-10-07T18:59:17.710Z,21.35
2023-10-07T19:01:46.514Z,21.41
2023-10-07T19:04:14.968Z,21.37
2023-10-07T19:06:43.424Z,21.21
2023-10-07T19:09:13.946Z,21.30
2023-10-07T19:11:43.014Z,21.33
2023-10-07T19:14:11.558Z,21.44
2023-10-07T19:16:40.273Z,21.32
2023-10-07T19:19:12.037Z,21.40
2023-10-07T19:21:41.066Z,21.39
2023-10-07T19:24:09.558Z,21.26
2023-10-07T19:26:38.110Z,21.31
2023-10-07T19:29:10.774Z,21.09
2023-10-07T19:31:39.203Z,21.12
2023-10-07T19:34:07.853Z,21.14
2023-10-07T19:36:36.513Z,21.08
2023-10-07T19:39:05.533Z,20.99
2023-10-07T19:41:34.352Z,21.09
2023-10-07T19:44:03.113Z,21.03
2023-10-07T19:46:32.074Z,20.80
2023-10-07T19:49:00.631Z,20.72
2023-10-07T19:51:28.940Z,20.74
2023-10-07T19:53:57.424Z,20.66
2023-10-07T19:56:25.931Z,20.91
2023-10-07T19:58:56.026Z,20.86
2023-10-07T20:01:24.609Z,20.89
2023-10-07T20:03:57.033Z,21.02
2023-10-07T20:06:27.353Z,20.90
2023-10-07T20:08:56.757Z,20.91
2023-10-07T20:11:26.500Z,20.59
2023-10-07T20:13:55.311Z,20.50
2023-10-07T20:16:24.283Z,20.46
2023-10-07T20:18:53.772Z,20.58
2023-10-07T20:21:24.241Z,20.61
2023-10-07T20:23:52.738Z,20.57
2023-10-07T20:26:21.975Z,20.49
2023-10-07T20:28:50.645Z,20.53
2023-10-07T20:31:19.973Z,20.35
2023-10-07T20:33:48.485Z,20.50
2023-10-07T20:36:17.170Z,20.52
2023-10-07T20:38:46.512Z,20.61
2023-10-07T20:41:15.286Z,20.48
2023-10-07T20:43:45.142Z,20.21
2023-10-07T20:46:13.539Z,20.33
2023-10-07T20:48:42.487Z,20.45
2023-10-07T20:51:15.880Z,20.45
2023-10-07T20:53:49.053Z,20.29
2023-10-07T20:56:24.239Z,20.41
2023-10-07T20:58:52.665Z,20.44
2023-10-07T21:01:22.754Z,20.13
2023-10-07T21:03:53.209Z,20.22
2023-10-07T21:06:22.847Z,20.08
2023-10-07T21:08:53.075Z,20.00
2023-10-07T21:11:25.204Z,20.16
2023-10-07T21:13:59.313Z,20.25
2023-10-07T21:16:29.238Z,20.32
2023-10-07T21:19:00.284Z,20.31
2023-10-07T21:21:29.216Z,20.23
2023-10-07T21:23:58.012Z,20.32
2023-10-07T21:26:26.671Z,20.26
2023-10-07T21:28:56.720Z,20.33
2023-10-07T21:31:31.882Z,20.37
2023-10-07T21:34:00.382Z,20.36
2023-10-07T21:36:29.749Z,20.34
2023-10-07T21:38:58.117Z,20.32
2023-10-07T21:41:27.324Z,20.14
2023-10-07T21:43:55.538Z,20.11
2023-10-07T21:46:24.036Z,19.69
2023-10-07T21:48:52.448Z,19.32
2023-10-07T21:51:21.313Z,19.24
2023-10-07T21:53:50.540Z,19.02
2023-10-07T21:56:19.034Z,18.92
2023-10-07T21:58:47.345Z,18.79
2023-10-07T22:01:19.105Z,18.65
2023-10-07T22:03:49.722Z,18.55
2023-10-07T22:06:19.536Z,18.47
2023-10-07T22:08:48.602Z,18.38
2023-10-07T22:11:17.293Z,18.36
2023-10-07T22:13:45.734Z,18.26
2023-10-07T22:16:13.701Z,18.21
2023-10-07T22:18:42.578Z,18.21
2023-10-07T22:21:12.672Z,18.12
2023-10-07T22:23:40.830Z,18.06
2023-10-07T22:26:13.342Z,18.07
2023-10-07T22:28:41.442Z,18.39
2023-10-07T22:31:09.619Z,18.25
2023-10-07T22:33:42.980Z,18.19
2023-10-07T22:36:19.520Z,18.10
2023-10-07T22:38:55.045Z,18.06
2023-10-07T22:41:39.391Z,17.99
2023-10-07T22:44:23.472Z,17.91
2023-10-07T22:46:51.876Z,17.89
2023-10-07T22:49:28.039Z,17.88
2023-10-07T22:51:56.696Z,17.90
2023-10-07T22:54:33.913Z,17.86
2023-10-07T22:57:09.068Z,18.08
2023-10-07T22:59:39.892Z,18.19
2023-10-07T23:02:13.771Z,18.18
2023-10-07T23:04:48.846Z,18.08
2023-10-07T23:07:26.460Z,17.95
2023-10-07T23:10:00.487Z,17.89
2023-10-07T23:12:40.347Z,17.86
2023-10-07T23:15:23.990Z,17.88
2023-10-07T23:17:53.349Z,17.82
2023-10-07T23:20:21.463Z,17.82
2023-10-07T23:22:49.397Z,17.82
2023-10-07T23:25:22.978Z,17.92
2023-10-07T23:27:51.339Z,17.82
2023-10-07T23:30:29.415Z,17.80
2023-10-07T23:33:00.587Z,17.75
2023-10-07T23:35:33.411Z,17.67
2023-10-07T23:38:20.054Z,17.60
2023-10-07T23:40:53.533Z,17.44
2023-10-07T23:43:22.670Z,17.37
2023-10-07T23:45:52.849Z,17.36
2023-10-07T23:48:21.141Z,17.30
2023-10-07T23:50:57.750Z,17.23
2023-10-07T23:53:27.656Z,17.15
2023-10-07T23:56:10.337Z,17.08
2023-10-07T23:58:44.766Z,17.09
